sensor_id;sensor_type;location;lat;lon;timestamp;pressure;altitude;pressure_sealevel;temperature;humidity
43691;BME280;29293;52.190;21.226;2023-02-20T00:08:02;100463.55;;;-0.08;100.00
43691;BME280;29293;52.190;21.226;2023-02-20T00:23:11;100433.13;;;-0.31;100.00
43691;BME280;29293;52.190;21.226;2023-02-20T00:38:20;100418.85;;;-0.27;100.00
43691;BME280;29293;52.190;21.226;2023-02-20T00:53:30;100421.61;;;-0.18;100.00
43691;BME280;29293;52.190;21.226;2023-02-20T01:08:40;100432.83;;;-0.08;100.00
43691;BME280;29293;52.190;21.226;2023-02-20T01:23:51;100419.11;;;-0.01;100.00
43691;BME280;29293;52.190;21.226;2023-02-20T01:39:01;100398.11;;;0.05;100.00
43691;BME280;29293;52.190;21.226;2023-02-20T01:54:14;100397.08;;;0.04;100.00
43691;BME280;29293;52.190;21.226;2023-02-20T02:09:33;100395.86;;;0.11;100.00
43691;BME280;29293;52.190;21.226;2023-02-20T02:40:30;100381.44;;;0.19;100.00
43691;BME280;29293;52.190;21.226;2023-02-20T02:55:43;100373.83;;;0.20;100.00
43691;BME280;29293;52.190;21.226;2023-02-20T03:10:53;100384.81;;;0.22;100.00
43691;BME280;29293;52.190;21.226;2023-02-20T03:26:07;100383.42;;;0.26;100.00
43691;BME280;29293;52.190;21.226;2023-02-20T03:41:27;100378.64;;;0.26;100.00
43691;BME280;29293;52.190;21.226;2023-02-20T03:56:58;100376.05;;;0.17;100.00
43691;BME280;29293;52.190;21.226;2023-02-20T04:12:14;100366.27;;;0.12;100.00
43691;BME280;29293;52.190;21.226;2023-02-20T04:27:27;100360.14;;;0.08;100.00
43691;BME280;29293;52.190;21.226;2023-02-20T04:42:36;100354.58;;;0.01;100.00
43691;BME280;29293;52.190;21.226;2023-02-20T04:57:47;100334.63;;;-0.01;100.00
43691;BME280;29293;52.190;21.226;2023-02-20T05:12:59;100325.78;;;-0.11;100.00
43691;BME280;29293;52.190;21.226;2023-02-20T05:28:08;100315.04;;;-0.18;100.00
43691;BME280;29293;52.190;21.226;2023-02-20T05:43:19;100304.27;;;-0.07;100.00
43691;BME280;29293;52.190;21.226;2023-02-20T05:58:28;100298.01;;;0.06;100.00
43691;BME280;29293;52.190;21.226;2023-02-20T06:13:40;100276.41;;;0.22;100.00
43691;BME280;29293;52.190;21.226;2023-02-20T06:28:51;100268.61;;;0.41;100.00
43691;BME280;29293;52.190;21.226;2023-02-20T06:44:05;100254.33;;;0.67;100.00
43691;BME280;29293;52.190;21.226;2023-02-20T06:59:16;100238.15;;;0.95;100.00
43691;BME280;29293;52.190;21.226;2023-02-20T07:14:29;100225.27;;;1.21;100.00
43691;BME280;29293;52.190;21.226;2023-02-20T07:29:40;100207.07;;;1.61;100.00
43691;BME280;29293;52.190;21.226;2023-02-20T07:44:52;100197.52;;;2.04;100.00
43691;BME280;29293;52.190;21.226;2023-02-20T08:00:03;100186.22;;;2.42;100.00
43691;BME280;29293;52.190;21.226;2023-02-20T08:15:13;100138.64;;;2.65;100.00
43691;BME280;29293;52.190;21.226;2023-02-20T08:30:24;100112.70;;;2.97;100.00
43691;BME280;29293;52.190;21.226;2023-02-20T08:45:49;100089.31;;;3.25;100.00
43691;BME280;29293;52.190;21.226;2023-02-20T09:00:59;100065.39;;;3.19;100.00
43691;BME280;29293;52.190;21.226;2023-02-20T09:16:10;100041.86;;;2.75;100.00
43691;BME280;29293;52.190;21.226;2023-02-20T09:31:20;99983.72;;;2.42;100.00
43691;BME280;29293;52.190;21.226;2023-02-20T09:46:30;99951.30;;;2.20;100.00
43691;BME280;29293;52.190;21.226;2023-02-20T10:01:42;99887.83;;;2.09;100.00
43691;BME280;29293;52.190;21.226;2023-02-20T10:17:01;99841.23;;;1.95;100.00
43691;BME280;29293;52.190;21.226;2023-02-20T10:32:17;99801.05;;;1.44;100.00
43691;BME280;29293;52.190;21.226;2023-02-20T10:47:33;99768.50;;;1.10;100.00
43691;BME280;29293;52.190;21.226;2023-02-20T11:02:52;99741.56;;;0.98;100.00
43691;BME280;29293;52.190;21.226;2023-02-20T11:18:10;99693.31;;;1.03;100.00
43691;BME280;29293;52.190;21.226;2023-02-20T11:33:25;99648.98;;;0.97;100.00
43691;BME280;29293;52.190;21.226;2023-02-20T11:48:38;99532.62;;;0.81;100.00
43691;BME280;29293;52.190;21.226;2023-02-20T12:04:20;99469.05;;;1.03;100.00
43691;BME280;29293;52.190;21.226;2023-02-20T12:19:36;99410.53;;;1.49;100.00
43691;BME280;29293;52.190;21.226;2023-02-20T12:35:16;99336.00;;;2.07;100.00
43691;BME280;29293;52.190;21.226;2023-02-20T12:50:54;99302.33;;;2.61;100.00
43691;BME280;29293;52.190;21.226;2023-02-20T13:06:08;99310.39;;;3.02;100.00
43691;BME280;29293;52.190;21.226;2023-02-20T13:21:24;99308.46;;;3.27;100.00
43691;BME280;29293;52.190;21.226;2023-02-20T13:36:51;99285.63;;;3.46;100.00
43691;BME280;29293;52.190;21.226;2023-02-20T13:52:01;99258.96;;;3.61;100.00
43691;BME280;29293;52.190;21.226;2023-02-20T14:07:13;99230.58;;;3.80;100.00
43691;BME280;29293;52.190;21.226;2023-02-20T14:22:30;99216.09;;;4.00;100.00
43691;BME280;29293;52.190;21.226;2023-02-20T14:37:53;99179.95;;;4.40;100.00
43691;BME280;29293;52.190;21.226;2023-02-20T14:53:11;99154.95;;;4.72;100.00
43691;BME280;29293;52.190;21.226;2023-02-20T15:08:24;99117.10;;;4.93;100.00
43691;BME280;29293;52.190;21.226;2023-02-20T15:23:36;99088.91;;;5.22;100.00
43691;BME280;29293;52.190;21.226;2023-02-20T15:38:46;99085.08;;;5.48;100.00
43691;BME280;29293;52.190;21.226;2023-02-20T15:53:56;99079.73;;;5.68;100.00
43691;BME280;29293;52.190;21.226;2023-02-20T16:09:06;99061.41;;;5.92;100.00
43691;BME280;29293;52.190;21.226;2023-02-20T16:24:22;99029.94;;;6.06;100.00
43691;BME280;29293;52.190;21.226;2023-02-20T16:39:32;99021.40;;;6.21;100.00
43691;BME280;29293;52.190;21.226;2023-02-20T16:54:43;99003.08;;;6.36;100.00
43691;BME280;29293;52.190;21.226;2023-02-20T17:09:55;99008.02;;;6.34;100.00
43691;BME280;29293;52.190;21.226;2023-02-20T17:25:04;99007.08;;;6.02;100.00
43691;BME280;29293;52.190;21.226;2023-02-20T17:40:17;98990.38;;;5.90;100.00
43691;BME280;29293;52.190;21.226;2023-02-20T17:55:28;98969.44;;;5.91;100.00
43691;BME280;29293;52.190;21.226;2023-02-20T18:10:36;98950.64;;;6.02;100.00
43691;BME280;29293;52.190;21.226;2023-02-20T18:25:46;98954.38;;;6.14;100.00
43691;BME280;29293;52.190;21.226;2023-02-20T18:40:55;98950.88;;;6.14;100.00
43691;BME280;29293;52.190;21.226;2023-02-20T18:56:11;98928.13;;;6.09;100.00
43691;BME280;29293;52.190;21.226;2023-02-20T19:11:23;98935.64;;;6.16;100.00
43691;BME280;29293;52.190;21.226;2023-02-20T19:26:44;98947.17;;;6.21;100.00
43691;BME280;29293;52.190;21.226;2023-02-20T19:41:53;98940.99;;;6.16;100.00
43691;BME280;29293;52.190;21.226;2023-02-20T19:57:03;98934.36;;;6.16;100.00
43691;BME280;29293;52.190;21.226;2023-02-20T20:12:16;98921.40;;;6.14;100.00
43691;BME280;29293;52.190;21.226;2023-02-20T20:27:44;98901.39;;;6.17;100.00
43691;BME280;29293;52.190;21.226;2023-02-20T20:42:56;98904.73;;;6.16;100.00
43691;BME280;29293;52.190;21.226;2023-02-20T20:58:05;98905.21;;;6.18;100.00
43691;BME280;29293;52.190;21.226;2023-02-20T21:13:15;98912.73;;;6.22;100.00
43691;BME280;29293;52.190;21.226;2023-02-20T21:28:25;98914.86;;;6.25;100.00
43691;BME280;29293;52.190;21.226;2023-02-20T21:43:35;98924.70;;;6.21;100.00
43691;BME280;29293;52.190;21.226;2023-02-20T21:59:05;98927.45;;;6.17;100.00
43691;BME280;29293;52.190;21.226;2023-02-20T22:14:19;98916.77;;;6.13;100.00
43691;BME280;29293;52.190;21.226;2023-02-20T22:29:47;98920.74;;;6.11;100.00
43691;BME280;29293;52.190;21.226;2023-02-20T22:45:14;98929.74;;;6.15;100.00
43691;BME280;29293;52.190;21.226;2023-02-20T23:00:41;98940.63;;;6.19;100.00
43691;BME280;29293;52.190;21.226;2023-02-20T23:16:08;98933.05;;;6.22;100.00
43691;BME280;29293;52.190;21.226;2023-02-20T23:31:37;98940.98;;;6.20;100.00
43691;BME280;29293;52.190;21.226;2023-02-20T23:47:05;98956.40;;;6.10;100.00
